sensor_id;sensor_type;location;lat;lon;timestamp;temperature;humidity
12841;DHT22;6487;48.626;12.486;2023-04-10T00:02:27;6.20;99.90
12841;DHT22;6487;48.626;12.486;2023-04-10T00:04:56;6.10;99.90
12841;DHT22;6487;48.626;12.486;2023-04-10T00:07:24;6.10;99.90
12841;DHT22;6487;48.626;12.486;2023-04-10T00:09:53;6.00;99.90
12841;DHT22;6487;48.626;12.486;2023-04-10T00:12:26;5.90;99.90
12841;DHT22;6487;48.626;12.486;2023-04-10T00:14:57;6.00;99.90
12841;DHT22;6487;48.626;12.486;2023-04-10T00:17:25;5.90;99.90
12841;DHT22;6487;48.626;12.486;2023-04-10T00:19:54;5.90;99.90
12841;DHT22;6487;48.626;12.486;2023-04-10T00:22:22;5.80;99.90
12841;DHT22;6487;48.626;12.486;2023-04-10T00:24:50;5.80;99.90
12841;DHT22;6487;48.626;12.486;2023-04-10T00:27:19;5.80;99.90
12841;DHT22;6487;48.626;12.486;2023-04-10T00:29:49;5.70;99.90
12841;DHT22;6487;48.626;12.486;2023-04-10T00:32:17;5.70;99.90
12841;DHT22;6487;48.626;12.486;2023-04-10T00:34:46;5.60;99.90
12841;DHT22;6487;48.626;12.486;2023-04-10T00:37:14;5.60;99.90
12841;DHT22;6487;48.626;12.486;2023-04-10T00:39:43;5.50;99.90
12841;DHT22;6487;48.626;12.486;2023-04-10T00:42:12;5.50;99.90
12841;DHT22;6487;48.626;12.486;2023-04-10T00:44:43;5.50;99.90
12841;DHT22;6487;48.626;12.486;2023-04-10T00:47:13;5.60;99.90
12841;DHT22;6487;48.626;12.486;2023-04-10T00:49:42;5.60;99.90
12841;DHT22;6487;48.626;12.486;2023-04-10T00:52:12;5.50;99.90
12841;DHT22;6487;48.626;12.486;2023-04-10T00:54:40;5.50;99.90
12841;DHT22;6487;48.626;12.486;2023-04-10T00:57:08;5.60;99.90
12841;DHT22;6487;48.626;12.486;2023-04-10T00:59:37;5.60;99.90
12841;DHT22;6487;48.626;12.486;2023-04-10T01:02:08;5.50;99.90
12841;DHT22;6487;48.626;12.486;2023-04-10T01:04:41;5.50;99.90
12841;DHT22;6487;48.626;12.486;2023-04-10T01:07:29;5.50;99.90
12841;DHT22;6487;48.626;12.486;2023-04-10T01:10:13;5.50;99.90
12841;DHT22;6487;48.626;12.486;2023-04-10T01:12:58;5.30;99.90
12841;DHT22;6487;48.626;12.486;2023-04-10T01:15:41;5.10;99.90
12841;DHT22;6487;48.626;12.486;2023-04-10T01:18:18;4.90;99.90
12841;DHT22;6487;48.626;12.486;2023-04-10T01:20:52;4.90;99.90
12841;DHT22;6487;48.626;12.486;2023-04-10T01:23:42;5.00;99.90
12841;DHT22;6487;48.626;12.486;2023-04-10T01:26:40;5.00;99.90
12841;DHT22;6487;48.626;12.486;2023-04-10T01:29:17;4.70;99.90
12841;DHT22;6487;48.626;12.486;2023-04-10T01:31:51;4.50;99.90
12841;DHT22;6487;48.626;12.486;2023-04-10T01:34:24;4.60;99.90
12841;DHT22;6487;48.626;12.486;2023-04-10T01:37:00;4.40;99.90
12841;DHT22;6487;48.626;12.486;2023-04-10T01:39:30;4.30;99.90
12841;DHT22;6487;48.626;12.486;2023-04-10T01:42:04;4.40;99.90
12841;DHT22;6487;48.626;12.486;2023-04-10T01:44:37;4.50;99.90
12841;DHT22;6487;48.626;12.486;2023-04-10T01:47:08;4.30;99.90
12841;DHT22;6487;48.626;12.486;2023-04-10T01:49:38;4.40;99.90
12841;DHT22;6487;48.626;12.486;2023-04-10T01:52:10;4.50;99.90
12841;DHT22;6487;48.626;12.486;2023-04-10T01:54:39;4.40;99.90
12841;DHT22;6487;48.626;12.486;2023-04-10T01:57:10;4.20;99.90
12841;DHT22;6487;48.626;12.486;2023-04-10T01:59:45;4.30;99.90
12841;DHT22;6487;48.626;12.486;2023-04-10T02:02:13;4.40;99.90
12841;DHT22;6487;48.626;12.486;2023-04-10T02:04:42;4.30;99.90
12841;DHT22;6487;48.626;12.486;2023-04-10T02:07:15;4.20;99.90
12841;DHT22;6487;48.626;12.486;2023-04-10T02:09:53;4.30;99.90
12841;DHT22;6487;48.626;12.486;2023-04-10T02:12:28;4.40;99.90
12841;DHT22;6487;48.626;12.486;2023-04-10T02:15:00;4.40;99.90
12841;DHT22;6487;48.626;12.486;2023-04-10T02:17:32;4.20;99.90
12841;DHT22;6487;48.626;12.486;2023-04-10T02:20:02;4.10;99.90
12841;DHT22;6487;48.626;12.486;2023-04-10T02:22:32;4.10;99.90
12841;DHT22;6487;48.626;12.486;2023-04-10T02:25:03;4.10;99.90
12841;DHT22;6487;48.626;12.486;2023-04-10T02:27:34;3.90;99.90
12841;DHT22;6487;48.626;12.486;2023-04-10T02:30:05;3.90;99.90
12841;DHT22;6487;48.626;12.486;2023-04-10T02:32:37;3.70;99.90
12841;DHT22;6487;48.626;12.486;2023-04-10T02:35:06;3.60;99.90
12841;DHT22;6487;48.626;12.486;2023-04-10T02:37:37;3.50;99.90
12841;DHT22;6487;48.626;12.486;2023-04-10T02:40:07;3.40;99.90
12841;DHT22;6487;48.626;12.486;2023-04-10T02:42:36;3.40;99.90
12841;DHT22;6487;48.626;12.486;2023-04-10T02:45:07;3.40;99.90
12841;DHT22;6487;48.626;12.486;2023-04-10T02:47:36;3.50;99.90
12841;DHT22;6487;48.626;12.486;2023-04-10T02:50:05;3.60;99.90
12841;DHT22;6487;48.626;12.486;2023-04-10T02:52:33;3.60;99.90
12841;DHT22;6487;48.626;12.486;2023-04-10T02:55:02;3.60;99.90
12841;DHT22;6487;48.626;12.486;2023-04-10T02:57:33;3.70;99.90
12841;DHT22;6487;48.626;12.486;2023-04-10T03:00:02;3.80;99.90
12841;DHT22;6487;48.626;12.486;2023-04-10T03:02:35;3.80;99.90
12841;DHT22;6487;48.626;12.486;2023-04-10T03:05:04;3.80;99.90
12841;DHT22;6487;48.626;12.486;2023-04-10T03:07:34;3.90;99.90
12841;DHT22;6487;48.626;12.486;2023-04-10T03:10:03;4.00;99.90
12841;DHT22;6487;48.626;12.486;2023-04-10T03:12:31;3.80;99.90
12841;DHT22;6487;48.626;12.486;2023-04-10T03:15:01;3.80;99.90
12841;DHT22;6487;48.626;12.486;2023-04-10T03:17:29;3.70;99.90
12841;DHT22;6487;48.626;12.486;2023-04-10T03:19:59;3.70;99.90
12841;DHT22;6487;48.626;12.486;2023-04-10T03:22:27;3.70;99.90
12841;DHT22;6487;48.626;12.486;2023-04-10T03:24:58;3.60;99.90
12841;DHT22;6487;48.626;12.486;2023-04-10T03:27:27;3.60;99.90
12841;DHT22;6487;48.626;12.486;2023-04-10T03:29:57;3.50;99.90
12841;DHT22;6487;48.626;12.486;2023-04-10T03:32:26;3.60;99.90
12841;DHT22;6487;48.626;12.486;2023-04-10T03:34:56;3.60;99.90
12841;DHT22;6487;48.626;12.486;2023-04-10T03:37:26;3.70;99.90
12841;DHT22;6487;48.626;12.486;2023-04-10T03:39:55;3.60;99.90
12841;DHT22;6487;48.626;12.486;2023-04-10T03:42:27;3.60;99.90
12841;DHT22;6487;48.626;12.486;2023-04-10T03:44:55;3.60;99.90
12841;DHT22;6487;48.626;12.486;2023-04-10T03:47:26;3.60;99.90
12841;DHT22;6487;48.626;12.486;2023-04-10T03:49:59;3.40;99.90
12841;DHT22;6487;48.626;12.486;2023-04-10T03:52:27;3.50;99.90
12841;DHT22;6487;48.626;12.486;2023-04-10T03:54:56;3.50;99.90
12841;DHT22;6487;48.626;12.486;2023-04-10T03:57:24;3.50;99.90
12841;DHT22;6487;48.626;12.486;2023-04-10T03:59:54;3.50;99.90
12841;DHT22;6487;48.626;12.486;2023-04-10T04:02:22;3.40;99.90
12841;DHT22;6487;48.626;12.486;2023-04-10T04:04:51;3.40;99.90
12841;DHT22;6487;48.626;12.486;2023-04-10T04:07:21;3.40;99.90
12841;DHT22;6487;48.626;12.486;2023-04-10T04:09:49;3.40;99.90
12841;DHT22;6487;48.626;12.486;2023-04-10T04:12:20;3.50;99.90
12841;DHT22;6487;48.626;12.486;2023-04-10T04:14:48;3.40;99.90
12841;DHT22;6487;48.626;12.486;2023-04-10T04:17:17;3.30;99.90
12841;DHT22;6487;48.626;12.486;2023-04-10T04:19:45;3.30;99.90
12841;DHT22;6487;48.626;12.486;2023-04-10T04:22:14;3.30;99.90
12841;DHT22;6487;48.626;12.486;2023-04-10T04:24:44;3.20;99.90
12841;DHT22;6487;48.626;12.486;2023-04-10T04:27:14;3.30;99.90
12841;DHT22;6487;48.626;12.486;2023-04-10T04:29:42;3.30;99.90
12841;DHT22;6487;48.626;12.486;2023-04-10T04:32:11;3.20;99.90
12841;DHT22;6487;48.626;12.486;2023-04-10T04:34:39;3.20;99.90
12841;DHT22;6487;48.626;12.486;2023-04-10T04:37:10;3.20;99.90
12841;DHT22;6487;48.626;12.486;2023-04-10T04:39:39;3.20;99.90
12841;DHT22;6487;48.626;12.486;2023-04-10T04:42:08;3.20;99.90
12841;DHT22;6487;48.626;12.486;2023-04-10T04:44:39;3.20;99.90
12841;DHT22;6487;48.626;12.486;2023-04-10T04:47:07;3.10;99.90
12841;DHT22;6487;48.626;12.486;2023-04-10T04:49:36;3.20;99.90
12841;DHT22;6487;48.626;12.486;2023-04-10T04:52:04;3.20;99.90
12841;DHT22;6487;48.626;12.486;2023-04-10T04:54:34;3.20;99.90
12841;DHT22;6487;48.626;12.486;2023-04-10T04:57:03;3.20;99.90
12841;DHT22;6487;48.626;12.486;2023-04-10T04:59:32;3.10;99.90
12841;DHT22;6487;48.626;12.486;2023-04-10T05:02:04;3.10;99.90
12841;DHT22;6487;48.626;12.486;2023-04-10T05:04:32;3.00;99.90
12841;DHT22;6487;48.626;12.486;2023-04-10T05:07:03;3.10;99.90
12841;DHT22;6487;48.626;12.486;2023-04-10T05:09:31;3.10;99.90
12841;DHT22;6487;48.626;12.486;2023-04-10T05:12:00;3.10;99.90
12841;DHT22;6487;48.626;12.486;2023-04-10T05:14:29;3.10;99.90
12841;DHT22;6487;48.626;12.486;2023-04-10T05:16:59;3.10;99.90
12841;DHT22;6487;48.626;12.486;2023-04-10T05:19:29;3.10;99.90
12841;DHT22;6487;48.626;12.486;2023-04-10T05:21:57;3.10;99.90
12841;DHT22;6487;48.626;12.486;2023-04-10T05:24:26;3.10;99.90
12841;DHT22;6487;48.626;12.486;2023-04-10T05:26:54;3.10;99.90
12841;DHT22;6487;48.626;12.486;2023-04-10T05:29:23;3.20;99.90
12841;DHT22;6487;48.626;12.486;2023-04-10T05:31:51;3.20;99.90
12841;DHT22;6487;48.626;12.486;2023-04-10T05:34:21;3.30;99.90
12841;DHT22;6487;48.626;12.486;2023-04-10T05:36:49;3.20;99.90
12841;DHT22;6487;48.626;12.486;2023-04-10T05:39:18;3.20;99.90
12841;DHT22;6487;48.626;12.486;2023-04-10T05:41:46;3.30;99.90
12841;DHT22;6487;48.626;12.486;2023-04-10T05:44:15;3.30;99.90
12841;DHT22;6487;48.626;12.486;2023-04-10T05:46:43;3.40;99.90
12841;DHT22;6487;48.626;12.486;2023-04-10T05:49:11;3.40;99.90
12841;DHT22;6487;48.626;12.486;2023-04-10T05:51:41;3.50;99.90
12841;DHT22;6487;48.626;12.486;2023-04-10T05:54:09;3.60;99.90
12841;DHT22;6487;48.626;12.486;2023-04-10T05:56:40;3.60;99.90
12841;DHT22;6487;48.626;12.486;2023-04-10T05:59:09;3.70;99.90
12841;DHT22;6487;48.626;12.486;2023-04-10T06:01:38;3.70;99.90
12841;DHT22;6487;48.626;12.486;2023-04-10T06:04:09;3.80;99.90
12841;DHT22;6487;48.626;12.486;2023-04-10T06:06:38;3.90;99.90
12841;DHT22;6487;48.626;12.486;2023-04-10T06:09:08;4.10;99.90
12841;DHT22;6487;48.626;12.486;2023-04-10T06:11:37;4.10;99.90
12841;DHT22;6487;48.626;12.486;2023-04-10T06:14:05;4.20;99.90
12841;DHT22;6487;48.626;12.486;2023-04-10T06:16:33;4.30;99.90
12841;DHT22;6487;48.626;12.486;2023-04-10T06:19:02;4.40;99.90
12841;DHT22;6487;48.626;12.486;2023-04-10T06:21:30;4.50;99.90
12841;DHT22;6487;48.626;12.486;2023-04-10T06:24:00;4.60;99.90
12841;DHT22;6487;48.626;12.486;2023-04-10T06:26:28;4.80;99.90
12841;DHT22;6487;48.626;12.486;2023-04-10T06:28:59;4.90;99.90
12841;DHT22;6487;48.626;12.486;2023-04-10T06:31:27;5.00;99.90
12841;DHT22;6487;48.626;12.486;2023-04-10T06:33:56;5.10;99.90
12841;DHT22;6487;48.626;12.486;2023-04-10T06:36:24;5.30;99.90
12841;DHT22;6487;48.626;12.486;2023-04-10T06:38:55;5.40;99.90
12841;DHT22;6487;48.626;12.486;2023-04-10T06:41:25;5.60;99.90
12841;DHT22;6487;48.626;12.486;2023-04-10T06:43:56;5.70;99.90
12841;DHT22;6487;48.626;12.486;2023-04-10T06:46:26;5.60;99.90
12841;DHT22;6487;48.626;12.486;2023-04-10T06:48:54;5.80;99.90
12841;DHT22;6487;48.626;12.486;2023-04-10T06:51:24;6.00;99.90
12841;DHT22;6487;48.626;12.486;2023-04-10T06:53:55;6.10;99.90
12841;DHT22;6487;48.626;12.486;2023-04-10T06:56:24;6.30;99.90
12841;DHT22;6487;48.626;12.486;2023-04-10T06:58:52;6.50;99.90
12841;DHT22;6487;48.626;12.486;2023-04-10T07:01:22;6.70;99.90
12841;DHT22;6487;48.626;12.486;2023-04-10T07:03:52;6.80;99.90
12841;DHT22;6487;48.626;12.486;2023-04-10T07:06:20;7.10;99.90
12841;DHT22;6487;48.626;12.486;2023-04-10T07:08:49;7.30;99.90
12841;DHT22;6487;48.626;12.486;2023-04-10T07:11:17;7.50;99.90
12841;DHT22;6487;48.626;12.486;2023-04-10T07:13:47;7.70;99.90
12841;DHT22;6487;48.626;12.486;2023-04-10T07:16:19;7.80;99.90
12841;DHT22;6487;48.626;12.486;2023-04-10T07:18:55;8.00;99.90
12841;DHT22;6487;48.626;12.486;2023-04-10T07:21:23;8.20;99.90
12841;DHT22;6487;48.626;12.486;2023-04-10T07:23:53;8.30;99.90
12841;DHT22;6487;48.626;12.486;2023-04-10T07:26:21;8.60;99.90
12841;DHT22;6487;48.626;12.486;2023-04-10T07:28:51;8.70;99.90
12841;DHT22;6487;48.626;12.486;2023-04-10T07:31:19;8.90;99.90
12841;DHT22;6487;48.626;12.486;2023-04-10T07:33:53;9.10;99.90
12841;DHT22;6487;48.626;12.486;2023-04-10T07:36:22;9.30;99.90
12841;DHT22;6487;48.626;12.486;2023-04-10T07:38:53;9.50;99.90
12841;DHT22;6487;48.626;12.486;2023-04-10T07:41:22;9.70;99.90
12841;DHT22;6487;48.626;12.486;2023-04-10T07:43:52;10.00;99.90
12841;DHT22;6487;48.626;12.486;2023-04-10T07:46:23;10.10;99.90
12841;DHT22;6487;48.626;12.486;2023-04-10T07:48:52;10.20;99.90
12841;DHT22;6487;48.626;12.486;2023-04-10T07:51:22;10.40;99.90
12841;DHT22;6487;48.626;12.486;2023-04-10T07:53:50;10.60;99.90
12841;DHT22;6487;48.626;12.486;2023-04-10T07:56:19;10.70;99.90
12841;DHT22;6487;48.626;12.486;2023-04-10T07:58:51;10.80;99.90
12841;DHT22;6487;48.626;12.486;2023-04-10T08:01:20;10.90;99.90
12841;DHT22;6487;48.626;12.486;2023-04-10T08:03:48;11.10;99.90
12841;DHT22;6487;48.626;12.486;2023-04-10T08:06:17;11.10;99.30
12841;DHT22;6487;48.626;12.486;2023-04-10T08:08:46;11.20;99.00
12841;DHT22;6487;48.626;12.486;2023-04-10T08:11:22;11.20;98.60
12841;DHT22;6487;48.626;12.486;2023-04-10T08:13:55;11.30;98.30
12841;DHT22;6487;48.626;12.486;2023-04-10T08:16:25;11.50;98.20
12841;DHT22;6487;48.626;12.486;2023-04-10T08:18:55;11.70;98.30
12841;DHT22;6487;48.626;12.486;2023-04-10T08:21:25;11.80;97.00
12841;DHT22;6487;48.626;12.486;2023-04-10T08:23:56;11.70;97.50
12841;DHT22;6487;48.626;12.486;2023-04-10T08:26:25;11.90;97.80
12841;DHT22;6487;48.626;12.486;2023-04-10T08:28:57;12.20;97.70
12841;DHT22;6487;48.626;12.486;2023-04-10T08:31:27;12.40;97.20
12841;DHT22;6487;48.626;12.486;2023-04-10T08:33:56;12.30;96.40
12841;DHT22;6487;48.626;12.486;2023-04-10T08:36:25;12.20;97.00
12841;DHT22;6487;48.626;12.486;2023-04-10T08:38:54;12.20;96.40
12841;DHT22;6487;48.626;12.486;2023-04-10T08:41:23;12.60;96.70
12841;DHT22;6487;48.626;12.486;2023-04-10T08:43:51;12.70;95.70
12841;DHT22;6487;48.626;12.486;2023-04-10T08:46:22;13.00;96.90
12841;DHT22;6487;48.626;12.486;2023-04-10T08:49:03;13.20;95.90
12841;DHT22;6487;48.626;12.486;2023-04-10T08:51:36;12.70;93.90
12841;DHT22;6487;48.626;12.486;2023-04-10T08:54:10;12.70;94.30
12841;DHT22;6487;48.626;12.486;2023-04-10T08:56:42;12.60;94.10
12841;DHT22;6487;48.626;12.486;2023-04-10T08:59:14;12.60;94.50
12841;DHT22;6487;48.626;12.486;2023-04-10T09:01:45;12.80;95.20
12841;DHT22;6487;48.626;12.486;2023-04-10T09:04:13;12.90;94.80
12841;DHT22;6487;48.626;12.486;2023-04-10T09:06:43;12.90;94.00
12841;DHT22;6487;48.626;12.486;2023-04-10T09:09:11;12.80;94.20
12841;DHT22;6487;48.626;12.486;2023-04-10T09:12:01;12.60;94.70
12841;DHT22;6487;48.626;12.486;2023-04-10T09:14:31;12.70;94.50
12841;DHT22;6487;48.626;12.486;2023-04-10T09:17:12;12.70;95.20
12841;DHT22;6487;48.626;12.486;2023-04-10T09:19:46;12.60;94.80
12841;DHT22;6487;48.626;12.486;2023-04-10T09:22:15;12.50;94.70
12841;DHT22;6487;48.626;12.486;2023-04-10T09:24:45;12.20;94.50
12841;DHT22;6487;48.626;12.486;2023-04-10T09:27:27;12.30;95.20
12841;DHT22;6487;48.626;12.486;2023-04-10T09:29:59;12.40;95.30
12841;DHT22;6487;48.626;12.486;2023-04-10T09:32:39;12.60;95.70
12841;DHT22;6487;48.626;12.486;2023-04-10T09:35:09;12.70;94.40
12841;DHT22;6487;48.626;12.486;2023-04-10T09:37:40;12.70;94.40
12841;DHT22;6487;48.626;12.486;2023-04-10T09:40:19;12.80;94.70
12841;DHT22;6487;48.626;12.486;2023-04-10T09:42:50;12.90;93.80
12841;DHT22;6487;48.626;12.486;2023-04-10T09:45:19;12.90;93.20
12841;DHT22;6487;48.626;12.486;2023-04-10T09:48:10;13.20;93.70
12841;DHT22;6487;48.626;12.486;2023-04-10T09:50:39;13.10;92.40
12841;DHT22;6487;48.626;12.486;2023-04-10T09:53:09;13.40;93.90
12841;DHT22;6487;48.626;12.486;2023-04-10T09:55:41;13.70;93.60
12841;DHT22;6487;48.626;12.486;2023-04-10T09:58:10;13.80;93.80
12841;DHT22;6487;48.626;12.486;2023-04-10T10:00:40;13.90;93.00
12841;DHT22;6487;48.626;12.486;2023-04-10T10:03:11;14.10;93.20
12841;DHT22;6487;48.626;12.486;2023-04-10T10:05:42;13.40;91.70
12841;DHT22;6487;48.626;12.486;2023-04-10T10:08:13;13.50;92.00
12841;DHT22;6487;48.626;12.486;2023-04-10T10:10:45;13.60;91.20
12841;DHT22;6487;48.626;12.486;2023-04-10T10:13:15;13.70;90.90
12841;DHT22;6487;48.626;12.486;2023-04-10T10:15:53;13.90;91.10
12841;DHT22;6487;48.626;12.486;2023-04-10T10:18:33;14.00;90.30
12841;DHT22;6487;48.626;12.486;2023-04-10T10:21:08;14.30;89.20
12841;DHT22;6487;48.626;12.486;2023-04-10T10:23:37;14.60;90.70
12841;DHT22;6487;48.626;12.486;2023-04-10T10:26:08;14.70;88.60
12841;DHT22;6487;48.626;12.486;2023-04-10T10:28:39;14.90;87.90
12841;DHT22;6487;48.626;12.486;2023-04-10T10:31:09;14.90;88.10
12841;DHT22;6487;48.626;12.486;2023-04-10T10:33:40;15.10;85.90
12841;DHT22;6487;48.626;12.486;2023-04-10T10:36:08;15.30;86.80
12841;DHT22;6487;48.626;12.486;2023-04-10T10:38:52;15.40;87.30
12841;DHT22;6487;48.626;12.486;2023-04-10T10:41:29;15.40;85.00
12841;DHT22;6487;48.626;12.486;2023-04-10T10:44:09;15.50;84.30
12841;DHT22;6487;48.626;12.486;2023-04-10T10:46:46;15.50;81.90
12841;DHT22;6487;48.626;12.486;2023-04-10T10:49:18;15.50;82.50
12841;DHT22;6487;48.626;12.486;2023-04-10T10:51:48;14.90;81.60
12841;DHT22;6487;48.626;12.486;2023-04-10T10:54:28;15.00;84.00
12841;DHT22;6487;48.626;12.486;2023-04-10T10:56:59;15.10;85.20
12841;DHT22;6487;48.626;12.486;2023-04-10T10:59:53;15.40;84.70
12841;DHT22;6487;48.626;12.486;2023-04-10T11:02:22;15.70;84.00
12841;DHT22;6487;48.626;12.486;2023-04-10T11:04:52;15.70;81.90
12841;DHT22;6487;48.626;12.486;2023-04-10T11:07:21;15.80;83.60
12841;DHT22;6487;48.626;12.486;2023-04-10T11:13:28;15.70;79.10
12841;DHT22;6487;48.626;12.486;2023-04-10T11:15:57;15.40;75.10
12841;DHT22;6487;48.626;12.486;2023-04-10T11:19:02;15.50;80.70
12841;DHT22;6487;48.626;12.486;2023-04-10T11:22:04;15.40;79.30
12841;DHT22;6487;48.626;12.486;2023-04-10T11:24:59;15.60;77.90
12841;DHT22;6487;48.626;12.486;2023-04-10T11:27:40;15.70;76.40
12841;DHT22;6487;48.626;12.486;2023-04-10T11:30:31;15.60;73.50
12841;DHT22;6487;48.626;12.486;2023-04-10T11:33:02;16.00;77.10
12841;DHT22;6487;48.626;12.486;2023-04-10T11:35:32;15.90;75.00
12841;DHT22;6487;48.626;12.486;2023-04-10T11:38:13;16.10;77.00
12841;DHT22;6487;48.626;12.486;2023-04-10T11:41:00;16.20;75.80
12841;DHT22;6487;48.626;12.486;2023-04-10T11:43:30;16.30;77.60
12841;DHT22;6487;48.626;12.486;2023-04-10T11:46:04;16.20;75.80
12841;DHT22;6487;48.626;12.486;2023-04-10T11:48:35;16.30;74.60
12841;DHT22;6487;48.626;12.486;2023-04-10T11:51:08;16.20;73.40
12841;DHT22;6487;48.626;12.486;2023-04-10T11:53:39;16.10;71.00
12841;DHT22;6487;48.626;12.486;2023-04-10T11:56:15;16.20;72.70
12841;DHT22;6487;48.626;12.486;2023-04-10T11:58:44;16.40;72.00
12841;DHT22;6487;48.626;12.486;2023-04-10T12:01:20;16.20;70.80
12841;DHT22;6487;48.626;12.486;2023-04-10T12:03:49;16.20;72.60
12841;DHT22;6487;48.626;12.486;2023-04-10T12:06:18;16.30;72.90
12841;DHT22;6487;48.626;12.486;2023-04-10T12:08:48;16.30;71.70
12841;DHT22;6487;48.626;12.486;2023-04-10T12:11:17;16.30;71.40
12841;DHT22;6487;48.626;12.486;2023-04-10T12:13:47;16.50;73.20
12841;DHT22;6487;48.626;12.486;2023-04-10T12:16:19;16.40;73.40
12841;DHT22;6487;48.626;12.486;2023-04-10T12:18:49;16.60;73.60
12841;DHT22;6487;48.626;12.486;2023-04-10T12:21:19;16.40;69.20
12841;DHT22;6487;48.626;12.486;2023-04-10T12:23:49;16.50;69.50
12841;DHT22;6487;48.626;12.486;2023-04-10T12:26:18;16.40;67.60
12841;DHT22;6487;48.626;12.486;2023-04-10T12:28:50;15.90;64.80
12841;DHT22;6487;48.626;12.486;2023-04-10T12:31:26;16.00;68.50
12841;DHT22;6487;48.626;12.486;2023-04-10T12:33:55;16.10;65.30
12841;DHT22;6487;48.626;12.486;2023-04-10T12:36:26;16.40;67.40
12841;DHT22;6487;48.626;12.486;2023-04-10T12:38:58;16.20;67.80
12841;DHT22;6487;48.626;12.486;2023-04-10T12:41:29;16.10;69.40
12841;DHT22;6487;48.626;12.486;2023-04-10T12:44:08;16.30;69.10
12841;DHT22;6487;48.626;12.486;2023-04-10T12:46:38;16.10;66.50
12841;DHT22;6487;48.626;12.486;2023-04-10T12:49:08;16.20;67.80
12841;DHT22;6487;48.626;12.486;2023-04-10T12:51:44;16.50;70.10
12841;DHT22;6487;48.626;12.486;2023-04-10T12:54:28;16.50;70.10
12841;DHT22;6487;48.626;12.486;2023-04-10T12:56:58;16.70;71.10
12841;DHT22;6487;48.626;12.486;2023-04-10T12:59:27;16.50;69.40
12841;DHT22;6487;48.626;12.486;2023-04-10T13:01:56;16.70;69.20
12841;DHT22;6487;48.626;12.486;2023-04-10T13:04:25;16.80;67.00
12841;DHT22;6487;48.626;12.486;2023-04-10T13:06:54;16.70;65.80
12841;DHT22;6487;48.626;12.486;2023-04-10T13:09:22;16.70;64.30
12841;DHT22;6487;48.626;12.486;2023-04-10T13:11:52;16.40;65.90
12841;DHT22;6487;48.626;12.486;2023-04-10T13:14:22;16.50;66.60
12841;DHT22;6487;48.626;12.486;2023-04-10T13:16:50;16.60;65.10
12841;DHT22;6487;48.626;12.486;2023-04-10T13:19:19;16.70;66.80
12841;DHT22;6487;48.626;12.486;2023-04-10T13:21:47;16.80;62.90
12841;DHT22;6487;48.626;12.486;2023-04-10T13:24:16;16.70;63.50
12841;DHT22;6487;48.626;12.486;2023-04-10T13:26:44;16.70;65.30
12841;DHT22;6487;48.626;12.486;2023-04-10T13:29:14;16.70;64.50
12841;DHT22;6487;48.626;12.486;2023-04-10T13:31:43;16.70;62.90
12841;DHT22;6487;48.626;12.486;2023-04-10T13:34:11;16.50;60.60
12841;DHT22;6487;48.626;12.486;2023-04-10T13:36:39;16.30;60.10
12841;DHT22;6487;48.626;12.486;2023-04-10T13:39:08;16.50;61.40
12841;DHT22;6487;48.626;12.486;2023-04-10T13:41:36;16.60;61.50
12841;DHT22;6487;48.626;12.486;2023-04-10T13:44:08;16.60;61.60
12841;DHT22;6487;48.626;12.486;2023-04-10T13:46:38;16.80;61.60
12841;DHT22;6487;48.626;12.486;2023-04-10T13:49:06;16.80;61.70
12841;DHT22;6487;48.626;12.486;2023-04-10T13:51:34;16.80;60.50
12841;DHT22;6487;48.626;12.486;2023-04-10T13:54:03;16.70;61.50
12841;DHT22;6487;48.626;12.486;2023-04-10T13:56:34;16.90;63.90
12841;DHT22;6487;48.626;12.486;2023-04-10T13:59:03;16.80;60.90
12841;DHT22;6487;48.626;12.486;2023-04-10T14:01:31;17.00;62.20
12841;DHT22;6487;48.626;12.486;2023-04-10T14:04:01;17.10;60.70
12841;DHT22;6487;48.626;12.486;2023-04-10T14:06:33;16.80;61.90
12841;DHT22;6487;48.626;12.486;2023-04-10T14:09:04;16.50;62.90
12841;DHT22;6487;48.626;12.486;2023-04-10T14:11:33;16.50;64.40
12841;DHT22;6487;48.626;12.486;2023-04-10T14:14:01;16.80;65.90
12841;DHT22;6487;48.626;12.486;2023-04-10T14:16:30;16.90;64.60
12841;DHT22;6487;48.626;12.486;2023-04-10T14:18:58;16.80;64.80
12841;DHT22;6487;48.626;12.486;2023-04-10T14:21:33;16.80;67.00
12841;DHT22;6487;48.626;12.486;2023-04-10T14:24:03;16.60;65.20
12841;DHT22;6487;48.626;12.486;2023-04-10T14:26:37;16.80;67.60
12841;DHT22;6487;48.626;12.486;2023-04-10T14:29:05;16.90;65.80
12841;DHT22;6487;48.626;12.486;2023-04-10T14:31:34;17.00;65.50
12841;DHT22;6487;48.626;12.486;2023-04-10T14:34:16;16.80;64.60
12841;DHT22;6487;48.626;12.486;2023-04-10T14:36:46;16.70;64.70
12841;DHT22;6487;48.626;12.486;2023-04-10T14:39:14;16.50;66.20
12841;DHT22;6487;48.626;12.486;2023-04-10T14:41:43;16.50;65.10
12841;DHT22;6487;48.626;12.486;2023-04-10T14:44:11;16.60;65.30
12841;DHT22;6487;48.626;12.486;2023-04-10T14:46:39;16.50;65.40
12841;DHT22;6487;48.626;12.486;2023-04-10T14:49:08;16.60;65.80
12841;DHT22;6487;48.626;12.486;2023-04-10T14:51:37;16.40;63.70
12841;DHT22;6487;48.626;12.486;2023-04-10T14:54:07;16.50;65.20
12841;DHT22;6487;48.626;12.486;2023-04-10T14:56:36;16.70;65.50
12841;DHT22;6487;48.626;12.486;2023-04-10T14:59:07;16.60;65.30
12841;DHT22;6487;48.626;12.486;2023-04-10T15:01:35;16.50;64.20
12841;DHT22;6487;48.626;12.486;2023-04-10T15:04:04;16.30;64.50
12841;DHT22;6487;48.626;12.486;2023-04-10T15:06:35;16.10;64.10
12841;DHT22;6487;48.626;12.486;2023-04-10T15:09:08;16.00;64.40
12841;DHT22;6487;48.626;12.486;2023-04-10T15:11:36;15.90;64.80
12841;DHT22;6487;48.626;12.486;2023-04-10T15:14:05;16.00;64.70
12841;DHT22;6487;48.626;12.486;2023-04-10T15:16:34;16.30;65.70
12841;DHT22;6487;48.626;12.486;2023-04-10T15:19:03;16.20;63.60
12841;DHT22;6487;48.626;12.486;2023-04-10T15:21:32;16.10;64.60
12841;DHT22;6487;48.626;12.486;2023-04-10T15:24:00;16.00;65.80
12841;DHT22;6487;48.626;12.486;2023-04-10T15:26:30;16.20;64.50
12841;DHT22;6487;48.626;12.486;2023-04-10T15:28:59;16.10;64.10
12841;DHT22;6487;48.626;12.486;2023-04-10T15:31:30;16.00;66.00
12841;DHT22;6487;48.626;12.486;2023-04-10T15:34:01;16.10;64.50
12841;DHT22;6487;48.626;12.486;2023-04-10T15:36:30;16.10;63.00
12841;DHT22;6487;48.626;12.486;2023-04-10T15:38:58;16.00;63.10
12841;DHT22;6487;48.626;12.486;2023-04-10T15:41:30;15.90;63.40
12841;DHT22;6487;48.626;12.486;2023-04-10T15:43:59;15.80;62.90
12841;DHT22;6487;48.626;12.486;2023-04-10T15:46:27;15.70;63.70
12841;DHT22;6487;48.626;12.486;2023-04-10T15:48:58;15.70;63.40
12841;DHT22;6487;48.626;12.486;2023-04-10T15:51:27;15.70;64.30
12841;DHT22;6487;48.626;12.486;2023-04-10T15:54:00;15.70;63.70
12841;DHT22;6487;48.626;12.486;2023-04-10T15:56:32;15.50;63.00
12841;DHT22;6487;48.626;12.486;2023-04-10T15:59:00;15.40;63.60
12841;DHT22;6487;48.626;12.486;2023-04-10T16:01:28;15.50;64.10
12841;DHT22;6487;48.626;12.486;2023-04-10T16:04:00;15.30;63.30
12841;DHT22;6487;48.626;12.486;2023-04-10T16:06:28;15.20;62.80